sensor_id;sensor_type;location;lat;lon;timestamp;P1;durP1;ratioP1;P2;durP2;ratioP2
60979;SDS011;46851;49.160;8.980;2022-07-23T00:00:21;7.78;;;6.00;;
60979;SDS011;46851;49.160;8.980;2022-07-23T00:02:47;9.43;;;6.07;;
60979;SDS011;46851;49.160;8.980;2022-07-23T00:05:13;9.82;;;5.97;;
60979;SDS011;46851;49.160;8.980;2022-07-23T00:07:39;8.00;;;5.95;;
60979;SDS011;46851;49.160;8.980;2022-07-23T00:10:07;8.32;;;6.70;;
60979;SDS011;46851;49.160;8.980;2022-07-23T00:12:33;8.05;;;6.30;;
60979;SDS011;46851;49.160;8.980;2022-07-23T00:14:59;9.82;;;6.80;;
60979;SDS011;46851;49.160;8.980;2022-07-23T00:17:25;7.28;;;6.43;;
60979;SDS011;46851;49.160;8.980;2022-07-23T00:19:51;11.52;;;6.97;;
60979;SDS011;46851;49.160;8.980;2022-07-23T00:22:18;8.63;;;7.28;;
60979;SDS011;46851;49.160;8.980;2022-07-23T00:24:44;8.75;;;6.50;;
60979;SDS011;46851;49.160;8.980;2022-07-23T00:27:10;9.48;;;7.07;;
60979;SDS011;46851;49.160;8.980;2022-07-23T00:29:36;7.07;;;6.38;;
60979;SDS011;46851;49.160;8.980;2022-07-23T00:32:02;9.05;;;7.40;;
60979;SDS011;46851;49.160;8.980;2022-07-23T00:34:28;9.30;;;6.70;;
60979;SDS011;46851;49.160;8.980;2022-07-23T00:36:54;10.32;;;6.88;;
60979;SDS011;46851;49.160;8.980;2022-07-23T00:39:21;8.98;;;6.75;;
60979;SDS011;46851;49.160;8.980;2022-07-23T00:41:47;8.80;;;7.25;;
60979;SDS011;46851;49.160;8.980;2022-07-23T00:44:17;8.90;;;7.15;;
60979;SDS011;46851;49.160;8.980;2022-07-23T00:46:48;10.32;;;7.10;;
60979;SDS011;46851;49.160;8.980;2022-07-23T00:49:15;8.55;;;7.18;;
60979;SDS011;46851;49.160;8.980;2022-07-23T00:51:41;7.55;;;6.53;;
60979;SDS011;46851;49.160;8.980;2022-07-23T00:54:07;9.98;;;6.97;;
60979;SDS011;46851;49.160;8.980;2022-07-23T00:56:33;8.82;;;6.53;;
60979;SDS011;46851;49.160;8.980;2022-07-23T00:59:00;8.68;;;7.10;;
60979;SDS011;46851;49.160;8.980;2022-07-23T01:01:26;8.52;;;7.05;;
60979;SDS011;46851;49.160;8.980;2022-07-23T01:03:52;10.43;;;6.75;;
60979;SDS011;46851;49.160;8.980;2022-07-23T01:06:18;8.77;;;6.72;;
60979;SDS011;46851;49.160;8.980;2022-07-23T01:08:44;8.55;;;6.90;;
60979;SDS011;46851;49.160;8.980;2022-07-23T01:11:10;9.55;;;6.90;;
60979;SDS011;46851;49.160;8.980;2022-07-23T01:13:42;9.30;;;7.10;;
60979;SDS011;46851;49.160;8.980;2022-07-23T01:16:08;9.82;;;7.45;;
60979;SDS011;46851;49.160;8.980;2022-07-23T01:18:34;8.48;;;7.38;;
60979;SDS011;46851;49.160;8.980;2022-07-23T01:21:00;9.85;;;7.03;;
60979;SDS011;46851;49.160;8.980;2022-07-23T01:23:26;10.93;;;7.15;;
60979;SDS011;46851;49.160;8.980;2022-07-23T01:25:52;10.40;;;7.78;;
60979;SDS011;46851;49.160;8.980;2022-07-23T01:28:19;10.45;;;7.50;;
60979;SDS011;46851;49.160;8.980;2022-07-23T01:30:45;8.20;;;7.10;;
60979;SDS011;46851;49.160;8.980;2022-07-23T01:33:12;12.23;;;7.97;;
60979;SDS011;46851;49.160;8.980;2022-07-23T01:35:38;9.18;;;7.30;;
60979;SDS011;46851;49.160;8.980;2022-07-23T01:38:04;15.18;;;7.95;;
60979;SDS011;46851;49.160;8.980;2022-07-23T01:40:30;12.05;;;7.38;;
60979;SDS011;46851;49.160;8.980;2022-07-23T01:42:56;9.63;;;7.53;;
60979;SDS011;46851;49.160;8.980;2022-07-23T01:45:22;8.27;;;7.38;;
60979;SDS011;46851;49.160;8.980;2022-07-23T01:47:48;11.90;;;7.63;;
60979;SDS011;46851;49.160;8.980;2022-07-23T01:50:14;9.13;;;7.45;;
60979;SDS011;46851;49.160;8.980;2022-07-23T01:52:40;10.27;;;7.70;;
60979;SDS011;46851;49.160;8.980;2022-07-23T01:55:06;9.45;;;7.30;;
60979;SDS011;46851;49.160;8.980;2022-07-23T01:57:32;9.55;;;7.88;;
60979;SDS011;46851;49.160;8.980;2022-07-23T01:59:58;9.13;;;7.57;;
60979;SDS011;46851;49.160;8.980;2022-07-23T02:02:24;14.77;;;8.00;;
60979;SDS011;46851;49.160;8.980;2022-07-23T02:04:50;13.88;;;8.82;;
60979;SDS011;46851;49.160;8.980;2022-07-23T02:07:16;13.52;;;8.30;;
60979;SDS011;46851;49.160;8.980;2022-07-23T02:09:43;9.77;;;8.02;;
60979;SDS011;46851;49.160;8.980;2022-07-23T02:12:09;10.90;;;8.25;;
60979;SDS011;46851;49.160;8.980;2022-07-23T02:14:35;11.40;;;8.73;;
60979;SDS011;46851;49.160;8.980;2022-07-23T02:17:00;11.75;;;8.90;;
60979;SDS011;46851;49.160;8.980;2022-07-23T02:19:26;10.75;;;8.40;;
60979;SDS011;46851;49.160;8.980;2022-07-23T02:21:52;13.00;;;9.13;;
60979;SDS011;46851;49.160;8.980;2022-07-23T02:24:19;10.70;;;8.88;;
60979;SDS011;46851;49.160;8.980;2022-07-23T02:26:45;11.73;;;9.23;;
60979;SDS011;46851;49.160;8.980;2022-07-23T02:29:11;12.38;;;9.02;;
60979;SDS011;46851;49.160;8.980;2022-07-23T02:31:38;9.98;;;8.90;;
60979;SDS011;46851;49.160;8.980;2022-07-23T02:34:04;15.57;;;9.65;;
60979;SDS011;46851;49.160;8.980;2022-07-23T02:36:30;11.05;;;8.85;;
60979;SDS011;46851;49.160;8.980;2022-07-23T02:38:56;11.82;;;8.82;;
60979;SDS011;46851;49.160;8.980;2022-07-23T02:41:22;12.10;;;9.50;;
60979;SDS011;46851;49.160;8.980;2022-07-23T02:43:49;13.63;;;8.90;;
60979;SDS011;46851;49.160;8.980;2022-07-23T02:46:15;11.48;;;9.40;;
60979;SDS011;46851;49.160;8.980;2022-07-23T02:48:41;13.32;;;9.07;;
60979;SDS011;46851;49.160;8.980;2022-07-23T02:51:07;12.05;;;8.65;;
60979;SDS011;46851;49.160;8.980;2022-07-23T02:53:33;14.55;;;9.18;;
60979;SDS011;46851;49.160;8.980;2022-07-23T02:55:59;11.60;;;9.27;;
60979;SDS011;46851;49.160;8.980;2022-07-23T02:58:25;11.60;;;9.27;;
60979;SDS011;46851;49.160;8.980;2022-07-23T03:00:52;10.13;;;8.95;;
60979;SDS011;46851;49.160;8.980;2022-07-23T03:03:18;10.82;;;9.60;;
60979;SDS011;46851;49.160;8.980;2022-07-23T03:05:44;13.05;;;9.27;;
60979;SDS011;46851;49.160;8.980;2022-07-23T03:08:10;15.85;;;9.65;;
60979;SDS011;46851;49.160;8.980;2022-07-23T03:10:36;11.63;;;9.05;;
60979;SDS011;46851;49.160;8.980;2022-07-23T03:13:02;12.90;;;9.70;;
60979;SDS011;46851;49.160;8.980;2022-07-23T03:15:28;10.68;;;8.60;;
60979;SDS011;46851;49.160;8.980;2022-07-23T03:17:54;11.63;;;9.82;;
60979;SDS011;46851;49.160;8.980;2022-07-23T03:20:20;15.00;;;9.35;;
60979;SDS011;46851;49.160;8.980;2022-07-23T03:22:46;11.70;;;8.77;;
60979;SDS011;46851;49.160;8.980;2022-07-23T03:25:12;11.85;;;9.55;;
60979;SDS011;46851;49.160;8.980;2022-07-23T03:27:38;12.48;;;9.63;;
60979;SDS011;46851;49.160;8.980;2022-07-23T03:30:04;12.48;;;9.48;;
60979;SDS011;46851;49.160;8.980;2022-07-23T03:32:30;13.50;;;10.13;;
60979;SDS011;46851;49.160;8.980;2022-07-23T03:34:56;13.75;;;10.10;;
60979;SDS011;46851;49.160;8.980;2022-07-23T03:37:22;13.02;;;9.23;;
60979;SDS011;46851;49.160;8.980;2022-07-23T03:39:48;10.93;;;9.02;;
60979;SDS011;46851;49.160;8.980;2022-07-23T03:42:14;12.13;;;9.82;;
60979;SDS011;46851;49.160;8.980;2022-07-23T03:44:41;11.70;;;9.27;;
60979;SDS011;46851;49.160;8.980;2022-07-23T03:47:07;15.38;;;9.77;;
60979;SDS011;46851;49.160;8.980;2022-07-23T03:49:33;17.15;;;9.13;;
60979;SDS011;46851;49.160;8.980;2022-07-23T03:51:59;12.95;;;9.23;;
60979;SDS011;46851;49.160;8.980;2022-07-23T03:54:25;12.85;;;9.02;;
60979;SDS011;46851;49.160;8.980;2022-07-23T03:56:51;12.43;;;9.00;;
60979;SDS011;46851;49.160;8.980;2022-07-23T03:59:17;13.45;;;8.88;;
60979;SDS011;46851;49.160;8.980;2022-07-23T04:01:43;11.70;;;8.90;;
60979;SDS011;46851;49.160;8.980;2022-07-23T04:04:09;11.57;;;9.00;;
60979;SDS011;46851;49.160;8.980;2022-07-23T04:06:35;13.50;;;9.00;;
60979;SDS011;46851;49.160;8.980;2022-07-23T04:09:01;14.88;;;9.20;;
60979;SDS011;46851;49.160;8.980;2022-07-23T04:11:27;11.88;;;8.57;;
60979;SDS011;46851;49.160;8.980;2022-07-23T04:13:53;10.02;;;8.88;;
60979;SDS011;46851;49.160;8.980;2022-07-23T04:16:19;13.00;;;8.82;;
60979;SDS011;46851;49.160;8.980;2022-07-23T04:18:45;9.50;;;7.68;;
60979;SDS011;46851;49.160;8.980;2022-07-23T04:21:11;15.02;;;8.07;;
60979;SDS011;46851;49.160;8.980;2022-07-23T04:23:37;12.90;;;8.13;;
60979;SDS011;46851;49.160;8.980;2022-07-23T04:26:03;12.77;;;8.05;;
60979;SDS011;46851;49.160;8.980;2022-07-23T04:28:29;11.15;;;8.45;;
60979;SDS011;46851;49.160;8.980;2022-07-23T04:30:56;11.60;;;7.80;;
60979;SDS011;46851;49.160;8.980;2022-07-23T04:33:22;12.57;;;6.90;;
60979;SDS011;46851;49.160;8.980;2022-07-23T04:35:48;12.75;;;7.22;;
60979;SDS011;46851;49.160;8.980;2022-07-23T04:38:14;9.88;;;7.18;;
60979;SDS011;46851;49.160;8.980;2022-07-23T04:40:40;9.90;;;6.97;;
60979;SDS011;46851;49.160;8.980;2022-07-23T04:43:06;10.75;;;7.47;;
60979;SDS011;46851;49.160;8.980;2022-07-23T04:45:32;12.50;;;7.40;;
60979;SDS011;46851;49.160;8.980;2022-07-23T04:47:58;11.15;;;7.32;;
60979;SDS011;46851;49.160;8.980;2022-07-23T04:50:24;12.38;;;7.72;;
60979;SDS011;46851;49.160;8.980;2022-07-23T04:52:50;12.93;;;8.82;;
60979;SDS011;46851;49.160;8.980;2022-07-23T04:55:16;10.52;;;7.78;;
60979;SDS011;46851;49.160;8.980;2022-07-23T04:57:42;13.35;;;8.02;;
60979;SDS011;46851;49.160;8.980;2022-07-23T05:00:08;11.00;;;7.70;;
60979;SDS011;46851;49.160;8.980;2022-07-23T05:02:34;14.50;;;8.85;;
60979;SDS011;46851;49.160;8.980;2022-07-23T05:05:00;10.48;;;8.45;;
60979;SDS011;46851;49.160;8.980;2022-07-23T05:07:26;14.05;;;8.13;;
60979;SDS011;46851;49.160;8.980;2022-07-23T05:09:52;14.75;;;8.77;;
60979;SDS011;46851;49.160;8.980;2022-07-23T05:12:18;13.30;;;8.10;;
60979;SDS011;46851;49.160;8.980;2022-07-23T05:14:44;15.77;;;8.88;;
60979;SDS011;46851;49.160;8.980;2022-07-23T05:17:10;14.10;;;8.60;;
60979;SDS011;46851;49.160;8.980;2022-07-23T05:19:36;14.07;;;9.30;;
60979;SDS011;46851;49.160;8.980;2022-07-23T05:22:02;15.48;;;8.65;;
60979;SDS011;46851;49.160;8.980;2022-07-23T05:24:28;12.07;;;8.05;;
60979;SDS011;46851;49.160;8.980;2022-07-23T05:26:54;14.88;;;8.95;;
60979;SDS011;46851;49.160;8.980;2022-07-23T05:29:20;11.80;;;8.77;;
60979;SDS011;46851;49.160;8.980;2022-07-23T05:31:46;13.15;;;8.10;;
60979;SDS011;46851;49.160;8.980;2022-07-23T05:34:12;12.20;;;8.40;;
60979;SDS011;46851;49.160;8.980;2022-07-23T05:36:38;12.35;;;8.43;;
60979;SDS011;46851;49.160;8.980;2022-07-23T05:39:04;11.50;;;7.85;;
60979;SDS011;46851;49.160;8.980;2022-07-23T05:41:30;13.40;;;6.80;;
60979;SDS011;46851;49.160;8.980;2022-07-23T05:43:56;10.93;;;7.32;;
60979;SDS011;46851;49.160;8.980;2022-07-23T05:46:22;15.25;;;7.85;;
60979;SDS011;46851;49.160;8.980;2022-07-23T05:48:48;10.93;;;8.10;;
60979;SDS011;46851;49.160;8.980;2022-07-23T05:51:21;12.57;;;7.90;;
60979;SDS011;46851;49.160;8.980;2022-07-23T05:53:47;10.95;;;7.32;;
60979;SDS011;46851;49.160;8.980;2022-07-23T05:56:13;13.23;;;7.70;;
60979;SDS011;46851;49.160;8.980;2022-07-23T05:58:39;15.60;;;8.50;;
60979;SDS011;46851;49.160;8.980;2022-07-23T06:01:05;9.57;;;7.40;;
60979;SDS011;46851;49.160;8.980;2022-07-23T06:03:31;11.30;;;7.70;;
60979;SDS011;46851;49.160;8.980;2022-07-23T06:05:57;9.65;;;7.50;;
60979;SDS011;46851;49.160;8.980;2022-07-23T06:08:23;12.60;;;7.80;;
60979;SDS011;46851;49.160;8.980;2022-07-23T06:10:49;10.60;;;7.85;;
60979;SDS011;46851;49.160;8.980;2022-07-23T06:13:17;12.27;;;8.00;;
60979;SDS011;46851;49.160;8.980;2022-07-23T06:15:43;13.40;;;8.48;;
60979;SDS011;46851;49.160;8.980;2022-07-23T06:18:09;11.32;;;8.13;;
60979;SDS011;46851;49.160;8.980;2022-07-23T06:20:35;11.27;;;7.63;;
60979;SDS011;46851;49.160;8.980;2022-07-23T06:23:04;9.80;;;8.20;;
60979;SDS011;46851;49.160;8.980;2022-07-23T06:25:30;10.30;;;7.65;;
60979;SDS011;46851;49.160;8.980;2022-07-23T06:27:56;10.05;;;7.22;;
60979;SDS011;46851;49.160;8.980;2022-07-23T06:30:22;9.00;;;7.43;;
60979;SDS011;46851;49.160;8.980;2022-07-23T06:32:48;7.65;;;6.80;;
60979;SDS011;46851;49.160;8.980;2022-07-23T06:35:15;10.30;;;7.43;;
60979;SDS011;46851;49.160;8.980;2022-07-23T06:37:41;11.35;;;8.35;;
60979;SDS011;46851;49.160;8.980;2022-07-23T06:40:07;8.43;;;7.50;;
60979;SDS011;46851;49.160;8.980;2022-07-23T06:42:33;11.35;;;7.47;;
60979;SDS011;46851;49.160;8.980;2022-07-23T06:45:02;10.68;;;7.97;;
60979;SDS011;46851;49.160;8.980;2022-07-23T06:47:28;23.75;;;20.73;;
60979;SDS011;46851;49.160;8.980;2022-07-23T06:49:54;10.05;;;8.23;;
60979;SDS011;46851;49.160;8.980;2022-07-23T06:52:20;10.35;;;8.38;;
60979;SDS011;46851;49.160;8.980;2022-07-23T06:54:46;11.15;;;9.25;;
60979;SDS011;46851;49.160;8.980;2022-07-23T06:57:12;15.02;;;10.88;;
60979;SDS011;46851;49.160;8.980;2022-07-23T06:59:38;14.88;;;11.40;;
60979;SDS011;46851;49.160;8.980;2022-07-23T07:02:05;14.63;;;10.80;;
60979;SDS011;46851;49.160;8.980;2022-07-23T07:04:39;12.60;;;10.35;;
60979;SDS011;46851;49.160;8.980;2022-07-23T07:07:05;14.65;;;10.13;;
60979;SDS011;46851;49.160;8.980;2022-07-23T07:09:31;13.82;;;10.13;;
60979;SDS011;46851;49.160;8.980;2022-07-23T07:11:57;15.85;;;10.25;;
60979;SDS011;46851;49.160;8.980;2022-07-23T07:14:23;10.57;;;9.07;;
60979;SDS011;46851;49.160;8.980;2022-07-23T07:16:49;12.15;;;9.65;;
60979;SDS011;46851;49.160;8.980;2022-07-23T07:19:15;12.82;;;9.55;;
60979;SDS011;46851;49.160;8.980;2022-07-23T07:21:41;12.50;;;10.18;;
60979;SDS011;46851;49.160;8.980;2022-07-23T07:24:07;10.68;;;9.05;;
60979;SDS011;46851;49.160;8.980;2022-07-23T07:26:33;13.77;;;9.60;;
60979;SDS011;46851;49.160;8.980;2022-07-23T07:28:59;11.93;;;9.70;;
60979;SDS011;46851;49.160;8.980;2022-07-23T07:31:26;12.68;;;9.80;;
60979;SDS011;46851;49.160;8.980;2022-07-23T07:33:52;13.98;;;9.43;;
60979;SDS011;46851;49.160;8.980;2022-07-23T07:36:18;13.82;;;9.88;;
60979;SDS011;46851;49.160;8.980;2022-07-23T07:38:44;13.35;;;9.90;;
60979;SDS011;46851;49.160;8.980;2022-07-23T07:41:10;13.68;;;9.10;;
60979;SDS011;46851;49.160;8.980;2022-07-23T07:43:36;14.00;;;10.25;;
60979;SDS011;46851;49.160;8.980;2022-07-23T07:46:02;13.32;;;9.57;;
60979;SDS011;46851;49.160;8.980;2022-07-23T07:48:28;13.55;;;10.13;;
60979;SDS011;46851;49.160;8.980;2022-07-23T07:50:54;13.18;;;9.55;;
60979;SDS011;46851;49.160;8.980;2022-07-23T07:53:21;11.73;;;9.07;;
60979;SDS011;46851;49.160;8.980;2022-07-23T07:55:47;9.65;;;8.57;;
60979;SDS011;46851;49.160;8.980;2022-07-23T07:58:13;12.73;;;8.73;;
60979;SDS011;46851;49.160;8.980;2022-07-23T08:00:39;13.68;;;9.55;;
60979;SDS011;46851;49.160;8.980;2022-07-23T08:03:05;12.82;;;9.82;;
60979;SDS011;46851;49.160;8.980;2022-07-23T08:05:31;14.10;;;8.80;;
60979;SDS011;46851;49.160;8.980;2022-07-23T08:07:57;12.65;;;9.10;;
60979;SDS011;46851;49.160;8.980;2022-07-23T08:10:25;11.82;;;8.85;;
60979;SDS011;46851;49.160;8.980;2022-07-23T08:12:51;10.50;;;8.52;;
60979;SDS011;46851;49.160;8.980;2022-07-23T08:15:19;10.48;;;8.35;;
60979;SDS011;46851;49.160;8.980;2022-07-23T08:17:45;10.30;;;8.10;;
60979;SDS011;46851;49.160;8.980;2022-07-23T08:20:12;12.07;;;8.35;;
60979;SDS011;46851;49.160;8.980;2022-07-23T08:22:58;11.98;;;8.25;;
60979;SDS011;46851;49.160;8.980;2022-07-23T08:25:25;15.90;;;8.45;;
60979;SDS011;46851;49.160;8.980;2022-07-23T08:27:51;14.05;;;8.55;;
60979;SDS011;46851;49.160;8.980;2022-07-23T08:30:17;14.18;;;9.23;;
60979;SDS011;46851;49.160;8.980;2022-07-23T08:32:48;19.38;;;9.00;;
60979;SDS011;46851;49.160;8.980;2022-07-23T08:35:14;12.68;;;8.48;;
60979;SDS011;46851;49.160;8.980;2022-07-23T08:37:40;10.32;;;7.50;;
60979;SDS011;46851;49.160;8.980;2022-07-23T08:40:06;9.45;;;7.70;;
60979;SDS011;46851;49.160;8.980;2022-07-23T08:42:32;8.65;;;7.05;;
60979;SDS011;46851;49.160;8.980;2022-07-23T08:45:06;10.40;;;6.80;;
60979;SDS011;46851;49.160;8.980;2022-07-23T08:47:33;9.93;;;6.40;;
60979;SDS011;46851;49.160;8.980;2022-07-23T08:50:01;8.68;;;6.13;;
60979;SDS011;46851;49.160;8.980;2022-07-23T08:52:27;15.23;;;6.93;;
60979;SDS011;46851;49.160;8.980;2022-07-23T08:54:56;12.30;;;6.70;;
60979;SDS011;46851;49.160;8.980;2022-07-23T08:57:22;18.88;;;7.28;;
60979;SDS011;46851;49.160;8.980;2022-07-23T08:59:51;11.18;;;6.68;;
60979;SDS011;46851;49.160;8.980;2022-07-23T09:02:17;11.10;;;6.75;;
60979;SDS011;46851;49.160;8.980;2022-07-23T09:04:44;7.10;;;5.65;;
60979;SDS011;46851;49.160;8.980;2022-07-23T09:07:10;8.38;;;5.55;;
60979;SDS011;46851;49.160;8.980;2022-07-23T09:09:36;10.05;;;6.40;;
60979;SDS011;46851;49.160;8.980;2022-07-23T09:12:08;11.85;;;6.43;;
60979;SDS011;46851;49.160;8.980;2022-07-23T09:14:35;6.57;;;5.78;;
60979;SDS011;46851;49.160;8.980;2022-07-23T09:17:11;12.25;;;5.95;;
60979;SDS011;46851;49.160;8.980;2022-07-23T09:19:37;9.65;;;6.38;;
60979;SDS011;46851;49.160;8.980;2022-07-23T09:22:16;8.70;;;5.53;;
60979;SDS011;46851;49.160;8.980;2022-07-23T09:30:41;7.22;;;6.00;;
60979;SDS011;46851;49.160;8.980;2022-07-23T09:33:42;7.75;;;6.18;;
60979;SDS011;46851;49.160;8.980;2022-07-23T09:42:19;6.38;;;5.72;;
60979;SDS011;46851;49.160;8.980;2022-07-23T09:44:49;5.90;;;5.30;;
60979;SDS011;46851;49.160;8.980;2022-07-23T09:53:33;9.00;;;6.00;;
60979;SDS011;46851;49.160;8.980;2022-07-23T09:55:59;9.38;;;6.30;;
60979;SDS011;46851;49.160;8.980;2022-07-23T09:58:43;9.90;;;6.63;;
60979;SDS011;46851;49.160;8.980;2022-07-23T10:04:20;5.70;;;5.13;;
60979;SDS011;46851;49.160;8.980;2022-07-23T10:12:45;11.65;;;5.60;;
60979;SDS011;46851;49.160;8.980;2022-07-23T10:15:30;7.57;;;6.28;;
60979;SDS011;46851;49.160;8.980;2022-07-23T10:17:56;7.50;;;6.70;;
60979;SDS011;46851;49.160;8.980;2022-07-23T10:20:23;7.47;;;6.53;;
60979;SDS011;46851;49.160;8.980;2022-07-23T10:23:04;6.50;;;5.85;;
60979;SDS011;46851;49.160;8.980;2022-07-23T10:25:36;6.35;;;5.63;;
60979;SDS011;46851;49.160;8.980;2022-07-23T10:28:10;6.05;;;5.40;;
60979;SDS011;46851;49.160;8.980;2022-07-23T10:38:07;7.60;;;6.50;;
60979;SDS011;46851;49.160;8.980;2022-07-23T10:40:36;7.40;;;5.90;;
60979;SDS011;46851;49.160;8.980;2022-07-23T10:43:03;11.32;;;7.55;;
60979;SDS011;46851;49.160;8.980;2022-07-23T10:45:38;5.65;;;4.97;;
60979;SDS011;46851;49.160;8.980;2022-07-23T19:03:05;12.63;;;7.10;;
60979;SDS011;46851;49.160;8.980;2022-07-23T19:05:31;10.68;;;7.47;;
60979;SDS011;46851;49.160;8.980;2022-07-23T19:07:57;9.18;;;7.43;;
60979;SDS011;46851;49.160;8.980;2022-07-23T19:10:23;10.25;;;7.40;;
60979;SDS011;46851;49.160;8.980;2022-07-23T19:12:49;9.35;;;7.32;;
60979;SDS011;46851;49.160;8.980;2022-07-23T19:15:16;10.02;;;7.35;;
60979;SDS011;46851;49.160;8.980;2022-07-23T19:17:42;9.88;;;6.90;;
60979;SDS011;46851;49.160;8.980;2022-07-23T19:20:08;9.90;;;7.38;;
60979;SDS011;46851;49.160;8.980;2022-07-23T19:22:35;13.98;;;7.38;;
60979;SDS011;46851;49.160;8.980;2022-07-23T19:25:02;10.68;;;6.88;;
60979;SDS011;46851;49.160;8.980;2022-07-23T19:27:28;9.18;;;7.10;;
60979;SDS011;46851;49.160;8.980;2022-07-23T19:29:54;10.30;;;7.38;;
60979;SDS011;46851;49.160;8.980;2022-07-23T19:34:48;9.43;;;7.40;;
60979;SDS011;46851;49.160;8.980;2022-07-23T19:37:14;10.85;;;7.10;;
60979;SDS011;46851;49.160;8.980;2022-07-23T19:39:42;9.63;;;6.68;;
60979;SDS011;46851;49.160;8.980;2022-07-23T19:42:08;8.95;;;6.82;;
60979;SDS011;46851;49.160;8.980;2022-07-23T19:44:35;7.88;;;6.97;;
60979;SDS011;46851;49.160;8.980;2022-07-23T19:47:01;10.13;;;7.90;;
60979;SDS011;46851;49.160;8.980;2022-07-23T19:49:27;12.30;;;8.57;;
60979;SDS011;46851;49.160;8.980;2022-07-23T19:51:53;12.57;;;9.93;;
60979;SDS011;46851;49.160;8.980;2022-07-23T19:54:19;12.27;;;9.10;;
60979;SDS011;46851;49.160;8.980;2022-07-23T19:56:48;10.88;;;7.97;;
60979;SDS011;46851;49.160;8.980;2022-07-23T19:59:15;11.35;;;7.75;;
60979;SDS011;46851;49.160;8.980;2022-07-23T20:01:41;8.35;;;7.35;;
60979;SDS011;46851;49.160;8.980;2022-07-23T20:04:07;9.73;;;7.70;;
60979;SDS011;46851;49.160;8.980;2022-07-23T20:06:34;12.80;;;7.90;;
60979;SDS011;46851;49.160;8.980;2022-07-23T20:09:00;9.68;;;7.40;;
60979;SDS011;46851;49.160;8.980;2022-07-23T20:11:26;8.63;;;7.32;;
60979;SDS011;46851;49.160;8.980;2022-07-23T20:13:52;10.57;;;7.30;;
60979;SDS011;46851;49.160;8.980;2022-07-23T20:16:18;10.38;;;6.70;;
60979;SDS011;46851;49.160;8.980;2022-07-23T20:18:44;10.77;;;6.85;;
60979;SDS011;46851;49.160;8.980;2022-07-23T20:21:10;9.70;;;6.70;;
60979;SDS011;46851;49.160;8.980;2022-07-23T20:23:36;15.35;;;6.90;;
60979;SDS011;46851;49.160;8.980;2022-07-23T20:26:03;8.35;;;7.40;;
60979;SDS011;46851;49.160;8.980;2022-07-23T20:28:29;9.82;;;7.50;;
60979;SDS011;46851;49.160;8.980;2022-07-23T20:30:55;11.95;;;7.57;;
60979;SDS011;46851;49.160;8.980;2022-07-23T20:33:22;9.85;;;7.38;;
60979;SDS011;46851;49.160;8.980;2022-07-23T20:35:51;15.90;;;7.05;;
60979;SDS011;46851;49.160;8.980;2022-07-23T20:38:17;8.82;;;7.38;;
60979;SDS011;46851;49.160;8.980;2022-07-23T20:40:43;8.32;;;7.18;;
60979;SDS011;46851;49.160;8.980;2022-07-23T20:43:10;10.00;;;7.00;;
60979;SDS011;46851;49.160;8.980;2022-07-23T20:45:36;10.73;;;7.80;;
60979;SDS011;46851;49.160;8.980;2022-07-23T20:48:02;9.88;;;7.32;;
60979;SDS011;46851;49.160;8.980;2022-07-23T20:50:28;11.02;;;7.55;;
60979;SDS011;46851;49.160;8.980;2022-07-23T20:52:54;27.63;;;13.85;;
60979;SDS011;46851;49.160;8.980;2022-07-23T20:55:20;10.70;;;7.85;;
60979;SDS011;46851;49.160;8.980;2022-07-23T20:57:46;11.75;;;7.97;;
60979;SDS011;46851;49.160;8.980;2022-07-23T21:00:13;9.80;;;7.43;;
60979;SDS011;46851;49.160;8.980;2022-07-23T21:02:40;9.43;;;7.65;;
60979;SDS011;46851;49.160;8.980;2022-07-23T21:05:06;10.35;;;8.00;;
60979;SDS011;46851;49.160;8.980;2022-07-23T21:07:33;9.65;;;8.43;;
60979;SDS011;46851;49.160;8.980;2022-07-23T21:09:58;10.32;;;8.00;;
60979;SDS011;46851;49.160;8.980;2022-07-23T21:12:25;11.82;;;8.50;;
60979;SDS011;46851;49.160;8.980;2022-07-23T21:14:51;12.80;;;8.93;;
60979;SDS011;46851;49.160;8.980;2022-07-23T21:17:18;9.50;;;8.45;;
60979;SDS011;46851;49.160;8.980;2022-07-23T21:19:44;9.50;;;8.48;;
60979;SDS011;46851;49.160;8.980;2022-07-23T21:22:10;9.82;;;8.50;;
60979;SDS011;46851;49.160;8.980;2022-07-23T21:24:37;13.32;;;8.52;;
60979;SDS011;46851;49.160;8.980;2022-07-23T21:27:03;10.43;;;8.85;;
60979;SDS011;46851;49.160;8.980;2022-07-23T21:29:29;11.18;;;8.35;;
60979;SDS011;46851;49.160;8.980;2022-07-23T21:31:55;10.88;;;9.02;;
60979;SDS011;46851;49.160;8.980;2022-07-23T21:34:21;9.95;;;8.95;;
60979;SDS011;46851;49.160;8.980;2022-07-23T21:36:49;12.80;;;9.00;;
60979;SDS011;46851;49.160;8.980;2022-07-23T21:39:15;11.52;;;9.40;;
60979;SDS011;46851;49.160;8.980;2022-07-23T21:41:42;10.73;;;8.75;;
60979;SDS011;46851;49.160;8.980;2022-07-23T21:44:08;12.82;;;9.00;;
60979;SDS011;46851;49.160;8.980;2022-07-23T21:46:34;11.02;;;9.40;;
60979;SDS011;46851;49.160;8.980;2022-07-23T21:49:00;10.30;;;9.13;;
60979;SDS011;46851;49.160;8.980;2022-07-23T21:51:27;12.63;;;9.13;;
60979;SDS011;46851;49.160;8.980;2022-07-23T21:53:53;12.68;;;8.98;;
60979;SDS011;46851;49.160;8.980;2022-07-23T21:56:19;10.23;;;9.20;;
60979;SDS011;46851;49.160;8.980;2022-07-23T21:58:46;13.23;;;9.52;;
60979;SDS011;46851;49.160;8.980;2022-07-23T22:01:12;10.40;;;9.30;;
60979;SDS011;46851;49.160;8.980;2022-07-23T22:03:38;10.80;;;9.63;;
60979;SDS011;46851;49.160;8.980;2022-07-23T22:06:04;11.77;;;9.43;;
60979;SDS011;46851;49.160;8.980;2022-07-23T22:08:30;12.60;;;9.90;;
60979;SDS011;46851;49.160;8.980;2022-07-23T22:10:56;13.40;;;9.80;;
60979;SDS011;46851;49.160;8.980;2022-07-23T22:13:22;14.52;;;9.60;;
60979;SDS011;46851;49.160;8.980;2022-07-23T22:15:48;11.70;;;9.60;;
60979;SDS011;46851;49.160;8.980;2022-07-23T22:18:14;11.00;;;9.60;;
60979;SDS011;46851;49.160;8.980;2022-07-23T22:20:40;12.32;;;9.50;;
60979;SDS011;46851;49.160;8.980;2022-07-23T22:23:06;11.55;;;9.70;;
60979;SDS011;46851;49.160;8.980;2022-07-23T22:25:33;13.02;;;9.50;;
60979;SDS011;46851;49.160;8.980;2022-07-23T22:27:59;13.82;;;9.70;;
60979;SDS011;46851;49.160;8.980;2022-07-23T22:30:25;12.20;;;9.55;;
60979;SDS011;46851;49.160;8.980;2022-07-23T22:32:51;13.48;;;10.15;;
60979;SDS011;46851;49.160;8.980;2022-07-23T22:35:17;13.30;;;9.48;;
60979;SDS011;46851;49.160;8.980;2022-07-23T22:37:44;10.60;;;9.50;;
60979;SDS011;46851;49.160;8.980;2022-07-23T22:42:54;12.13;;;9.50;;
60979;SDS011;46851;49.160;8.980;2022-07-23T22:45:20;11.20;;;9.10;;
60979;SDS011;46851;49.160;8.980;2022-07-23T22:47:46;12.85;;;9.32;;
60979;SDS011;46851;49.160;8.980;2022-07-23T22:50:12;11.80;;;9.90;;
60979;SDS011;46851;49.160;8.980;2022-07-23T22:52:38;13.40;;;9.70;;
60979;SDS011;46851;49.160;8.980;2022-07-23T22:55:04;13.00;;;9.65;;
60979;SDS011;46851;49.160;8.980;2022-07-23T22:57:31;11.40;;;9.02;;
60979;SDS011;46851;49.160;8.980;2022-07-23T22:59:57;13.07;;;9.25;;
60979;SDS011;46851;49.160;8.980;2022-07-23T23:02:23;13.40;;;9.68;;
60979;SDS011;46851;49.160;8.980;2022-07-23T23:04:49;11.23;;;9.32;;
60979;SDS011;46851;49.160;8.980;2022-07-23T23:07:15;13.82;;;9.38;;
60979;SDS011;46851;49.160;8.980;2022-07-23T23:09:41;11.68;;;9.27;;
60979;SDS011;46851;49.160;8.980;2022-07-23T23:12:07;10.13;;;8.80;;
60979;SDS011;46851;49.160;8.980;2022-07-23T23:14:33;11.13;;;9.07;;
60979;SDS011;46851;49.160;8.980;2022-07-23T23:16:59;12.45;;;9.43;;
60979;SDS011;46851;49.160;8.980;2022-07-23T23:19:25;12.68;;;9.63;;
60979;SDS011;46851;49.160;8.980;2022-07-23T23:21:51;12.00;;;9.63;;
60979;SDS011;46851;49.160;8.980;2022-07-23T23:24:17;10.10;;;9.00;;
60979;SDS011;46851;49.160;8.980;2022-07-23T23:26:43;10.70;;;8.90;;
60979;SDS011;46851;49.160;8.980;2022-07-23T23:29:09;9.55;;;8.55;;